Time;durP1;ratioP1;P1;durP2;ratioP2;P2;SDS_P1;SDS_P2;PMS_P1;PMS_P2;Temp;Humidity;BMP_temperature;BMP_pressure;BME280_temperature;BME280_humidity;BME280_pressure;Samples;Min_cycle;Max_cycle;Signal;HPM_P1;HPM_P2
2022/12/19 00:02:09;;;;;;;41.95;24.65;;;1.40;99.90;;;;;;5054151;28;20040;-70
2022/12/19 00:04:35;;;;;;;39.88;23.40;;;1.30;99.90;;;;;;5050644;28;20041;-70
2022/12/19 00:07:00;;;;;;;44.25;24.08;;;1.40;99.90;;;;;;5065226;28;20092;-70
2022/12/19 00:09:26;;;;;;;40.08;24.25;;;1.40;99.90;;;;;;5063884;28;20052;-70
2022/12/19 00:11:52;;;;;;;44.78;25.05;;;1.40;99.90;;;;;;5086085;28;20108;-70
2022/12/19 00:14:19;;;;;;;41.13;23.00;;;1.50;99.90;;;;;;5070272;28;20067;-70
2022/12/19 00:16:44;;;;;;;40.25;22.45;;;1.50;99.90;;;;;;5070010;28;20101;-70
2022/12/19 00:19:10;;;;;;;43.45;24.40;;;1.50;99.90;;;;;;5062573;28;20044;-70
2022/12/19 00:21:37;;;;;;;44.72;22.48;;;1.60;99.90;;;;;;5088445;28;20060;-70
2022/12/19 00:24:05;;;;;;;43.65;26.33;;;1.60;99.90;;;;;;5062193;28;20056;-70
2022/12/19 00:26:33;;;;;;;44.75;25.13;;;1.50;99.90;;;;;;5069776;28;20053;-70
2022/12/19 00:29:01;;;;;;;44.58;25.58;;;1.40;99.90;;;;;;5074553;28;20044;-70
2022/12/19 00:31:30;;;;;;;41.90;24.80;;;1.60;99.90;;;;;;5063551;28;20120;-70
2022/12/19 00:33:56;;;;;;;40.97;24.80;;;1.50;99.90;;;;;;5087717;28;20115;-70
2022/12/19 00:36:27;;;;;;;44.45;24.75;;;1.50;99.90;;;;;;5084230;28;20047;-70
2022/12/19 00:38:55;;;;;;;44.92;25.13;;;1.50;99.90;;;;;;5080102;28;20036;-70
2022/12/19 00:41:26;;;;;;;43.33;25.55;;;1.40;99.90;;;;;;5070002;28;20106;-70
2022/12/19 00:44:00;;;;;;;42.65;24.58;;;1.50;99.90;;;;;;5074915;28;20080;-70
2022/12/19 00:46:28;;;;;;;43.40;24.80;;;1.40;99.90;;;;;;5067824;28;20041;-70
2022/12/19 00:48:54;;;;;;;45.40;24.63;;;1.40;99.90;;;;;;5067850;28;20045;-70
2022/12/19 00:51:23;;;;;;;43.83;24.52;;;1.40;99.90;;;;;;5057378;28;20041;-70
2022/12/19 00:53:50;;;;;;;42.03;25.08;;;1.50;99.90;;;;;;5069498;28;20051;-70
2022/12/19 00:56:20;;;;;;;44.25;24.80;;;1.40;99.90;;;;;;5076507;28;20047;-70
2022/12/19 00:58:46;;;;;;;48.70;24.77;;;1.60;99.90;;;;;;5060003;28;20057;-70
2022/12/19 01:01:17;;;;;;;43.00;24.13;;;1.60;99.90;;;;;;5056433;28;20136;-70
2022/12/19 01:03:43;;;;;;;45.00;25.25;;;1.70;99.90;;;;;;5069247;28;20056;-70
2022/12/19 01:06:09;;;;;;;43.05;25.20;;;1.60;99.90;;;;;;5087642;28;20080;-70
2022/12/19 01:08:35;;;;;;;45.33;26.08;;;1.60;99.90;;;;;;5087988;28;20056;-70
2022/12/19 01:11:01;;;;;;;41.50;23.33;;;1.70;99.90;;;;;;5052035;28;20080;-70
2022/12/19 01:13:29;;;;;;;40.17;23.50;;;1.70;99.90;;;;;;5078852;28;20056;-70
2022/12/19 01:15:55;;;;;;;44.22;24.40;;;1.80;99.90;;;;;;5068955;28;20082;-70
2022/12/19 01:18:21;;;;;;;49.45;26.52;;;1.80;99.90;;;;;;5069217;28;20424;-70
2022/12/19 01:20:47;;;;;;;43.67;24.42;;;1.70;99.90;;;;;;5051362;28;20033;-70
2022/12/19 01:23:14;;;;;;;44.95;26.17;;;1.90;99.90;;;;;;5060175;28;20055;-70
2022/12/19 01:25:41;;;;;;;44.25;25.23;;;1.80;99.90;;;;;;5051140;28;20029;-70
2022/12/19 01:28:07;;;;;;;45.78;25.10;;;1.80;99.90;;;;;;5064309;28;20048;-70
2022/12/19 01:30:33;;;;;;;46.78;25.88;;;1.80;99.90;;;;;;5069039;28;20040;-70
2022/12/19 01:33:00;;;;;;;42.65;24.05;;;1.80;99.90;;;;;;5068636;28;20048;-70
2022/12/19 01:35:26;;;;;;;45.00;25.23;;;1.90;99.90;;;;;;5061977;28;20045;-70
2022/12/19 01:37:53;;;;;;;46.75;25.70;;;2.00;99.90;;;;;;5068662;28;20130;-70
2022/12/19 01:40:20;;;;;;;43.78;24.63;;;1.90;99.90;;;;;;5086751;28;20386;-70
2022/12/19 01:42:47;;;;;;;38.95;22.42;;;1.90;99.90;;;;;;5045977;28;20051;-70
2022/12/19 01:45:13;;;;;;;41.80;24.58;;;1.90;99.90;;;;;;5069119;28;20063;-71
2022/12/19 01:47:55;;;;;;;47.05;25.30;;;2.10;99.90;;;;;;5068834;28;20131;-70
2022/12/19 01:50:33;;;;;;;44.33;24.67;;;2.00;99.90;;;;;;5061750;28;20079;-71
2022/12/19 01:53:00;;;;;;;43.88;24.25;;;1.90;99.90;;;;;;5078491;28;20065;-71
2022/12/19 01:55:26;;;;;;;45.00;26.00;;;1.90;99.90;;;;;;5086337;28;20040;-71
2022/12/19 01:57:53;;;;;;;45.70;24.80;;;1.90;99.90;;;;;;5068298;28;20104;-71
2022/12/19 02:00:19;;;;;;;44.35;24.95;;;1.90;99.90;;;;;;5068158;28;20093;-70
2022/12/19 02:02:58;;;;;;;42.88;24.30;;;1.90;99.90;;;;;;5060090;28;20443;-70
2022/12/19 02:05:23;;;;;;;43.00;25.05;;;1.90;99.90;;;;;;5067860;28;20050;-71
2022/12/19 02:07:51;;;;;;;48.95;25.60;;;2.10;99.90;;;;;;5085999;28;20079;-71
2022/12/19 02:10:16;;;;;;;45.08;24.60;;;2.10;99.90;;;;;;5063376;28;20048;-70
2022/12/19 02:12:44;;;;;;;42.00;24.70;;;2.20;99.90;;;;;;5056302;28;20050;-70
2022/12/19 02:15:12;;;;;;;45.85;26.05;;;2.20;99.90;;;;;;5082601;28;20074;-71
2022/12/19 02:17:41;;;;;;;46.72;27.85;;;2.00;99.90;;;;;;5059380;28;20049;-70
2022/12/19 02:20:40;;;;;;;48.38;25.13;;;2.10;99.90;;;;;;5067895;28;20094;-71
2022/12/19 02:23:25;;;;;;;48.42;25.50;;;2.10;99.90;;;;;;5061378;28;20052;-71
2022/12/19 02:26:23;;;;;;;42.08;23.13;;;2.10;99.90;;;;;;5066613;28;20059;-71
2022/12/19 02:29:14;;;;;;;40.78;22.13;;;2.30;99.90;;;;;;5083678;28;20077;-70
2022/12/19 02:31:48;;;;;;;;;;;2.30;99.90;;;;;;5061113;28;20071;-70
2022/12/19 02:34:30;;;;;;;44.60;23.65;;;2.30;99.90;;;;;;5068053;28;19920;-71
2022/12/19 02:37:13;;;;;;;46.92;25.13;;;2.30;99.90;;;;;;5064580;28;20044;-70
2022/12/19 02:40:00;;;;;;;46.08;26.27;;;2.30;99.90;;;;;;5056460;28;20087;-71
2022/12/19 02:42:34;;;;;;;51.05;27.70;;;2.30;99.90;;;;;;5058172;28;20056;-70
2022/12/19 02:45:03;;;;;;;52.42;28.25;;;2.10;99.90;;;;;;5067119;28;20055;-71
2022/12/19 02:47:31;;;;;;;51.03;27.25;;;2.10;99.90;;;;;;5067722;28;20056;-71
2022/12/19 02:49:57;;;;;;;51.88;27.20;;;2.20;99.90;;;;;;5068990;28;20044;-70
2022/12/19 02:52:22;;;;;;;56.00;26.70;;;2.10;99.90;;;;;;5061284;28;20846;-71
2022/12/19 02:54:50;;;;;;;54.90;29.48;;;2.10;99.90;;;;;;5068027;28;20104;-70
2022/12/19 02:58:01;;;;;;;51.30;27.23;;;2.20;99.90;;;;;;5077372;28;20044;-70
2022/12/19 03:00:27;;;;;;;;;;;2.20;99.90;;;;;;5003945;28;20054;-71
2022/12/19 03:03:08;;;;;;;58.42;29.58;;;2.20;99.90;;;;;;5001144;28;19929;-71
2022/12/19 03:05:43;;;;;;;52.75;28.50;;;2.20;99.90;;;;;;4999998;28;20050;-71
2022/12/19 03:08:33;;;;;;;55.72;28.48;;;2.20;99.90;;;;;;4987155;28;20065;-70
2022/12/19 03:11:06;;;;;;;54.08;26.73;;;2.30;99.90;;;;;;4987090;28;20058;-71
2022/12/19 03:13:39;;;;;;;58.92;29.63;;;2.30;99.90;;;;;;4991211;28;20498;-70
2022/12/19 03:16:08;;;;;;;60.42;30.65;;;2.20;99.90;;;;;;5002954;28;20057;-71
2022/12/19 03:18:34;;;;;;;57.47;30.52;;;2.10;99.90;;;;;;5012578;28;20062;-71
2022/12/19 03:21:10;;;;;;;58.00;29.15;;;2.20;99.90;;;;;;4987357;28;20061;-71
2022/12/19 03:23:36;;;;;;;58.58;30.85;;;2.20;99.90;;;;;;4987126;28;20050;-71
2022/12/19 03:26:05;;;;;;;62.42;31.88;;;2.20;99.90;;;;;;4980879;28;20058;-70
2022/12/19 03:28:53;;;;;;;49.67;25.20;;;2.30;99.90;;;;;;4999326;28;20103;-70
2022/12/19 03:31:23;;;;;;;62.05;31.08;;;2.30;99.90;;;;;;4987065;28;20058;-70
2022/12/19 03:33:54;;;;;;;66.50;32.27;;;2.30;99.90;;;;;;4986582;28;20050;-71
2022/12/19 03:36:27;;;;;;;68.15;30.95;;;2.20;99.90;;;;;;5012567;28;20049;-70
2022/12/19 03:38:54;;;;;;;61.38;29.60;;;2.10;99.90;;;;;;5065190;28;20116;-70
2022/12/19 03:43:07;;;;;;;66.03;32.58;;;2.00;99.90;;;;;;5084408;28;20052;-70
2022/12/19 03:44:10;;;;;;;64.68;31.42;;;2.10;99.90;;;;;;5056612;28;20052;-71
2022/12/19 03:46:42;;;;;;;74.72;32.75;;;2.20;99.90;;;;;;5066315;28;20045;-71
2022/12/19 03:49:07;;;;;;;72.75;33.03;;;2.20;99.90;;;;;;5058558;28;20049;-71
2022/12/19 03:51:42;;;;;;;71.35;33.08;;;2.30;99.90;;;;;;5063033;28;20102;-70
2022/12/19 03:54:40;;;;;;;70.57;32.53;;;2.30;99.90;;;;;;5084727;28;20052;-70
2022/12/19 03:57:05;;;;;;;68.95;32.72;;;2.30;99.90;;;;;;5046948;28;20049;-70
2022/12/19 04:00:14;;;;;;;73.00;32.67;;;2.40;99.90;;;;;;5066871;28;20044;-70
2022/12/19 04:02:45;;;;;;;72.57;33.80;;;2.50;99.90;;;;;;5075476;28;20060;-70
2022/12/19 04:05:17;;;;;;;69.03;31.25;;;2.40;99.90;;;;;;5046452;28;20052;-70
2022/12/19 04:07:43;;;;;;;72.40;35.15;;;2.60;99.90;;;;;;5061508;28;20048;-70
2022/12/19 04:10:13;;;;;;;71.80;32.95;;;2.60;99.90;;;;;;5066667;28;20100;-70
2022/12/19 04:12:51;;;;;;;72.05;33.50;;;2.60;99.90;;;;;;5064713;28;20127;-70
2022/12/19 04:15:18;;;;;;;76.55;34.63;;;2.70;99.90;;;;;;5047659;28;20052;-69
2022/12/19 04:17:55;;;;;;;76.10;35.60;;;2.70;99.90;;;;;;5084644;28;20052;-70
2022/12/19 04:20:25;;;;;;;73.03;34.22;;;2.80;99.90;;;;;;5067211;28;20048;-70
2022/12/19 04:23:15;;;;;;;75.65;34.38;;;2.90;99.90;;;;;;5061955;28;20083;-70
2022/12/19 04:25:46;;;;;;;78.20;34.22;;;2.90;99.90;;;;;;5055552;28;20036;-70
2022/12/19 04:28:20;;;;;;;77.45;35.17;;;2.90;99.90;;;;;;5049800;28;20080;-70
2022/12/19 04:30:47;;;;;;;80.55;36.55;;;3.00;99.90;;;;;;5077389;28;20041;-70
2022/12/19 04:33:13;;;;;;;72.80;33.33;;;2.80;99.90;;;;;;5040031;28;20057;-70
2022/12/19 04:35:39;;;;;;;72.00;32.75;;;3.00;99.90;;;;;;5090239;28;20092;-70
2022/12/19 04:38:05;;;;;;;77.10;35.03;;;3.10;99.90;;;;;;5066640;28;20044;-70
2022/12/19 04:40:32;;;;;;;78.60;36.60;;;3.10;99.90;;;;;;5066080;28;20045;-70
2022/12/19 04:42:58;;;;;;;74.75;36.40;;;2.90;99.90;;;;;;5074330;28;20040;-70
2022/12/19 04:45:24;;;;;;;85.78;35.90;;;2.90;99.90;;;;;;5073872;28;20080;-70
2022/12/19 04:47:49;;;;;;;80.70;36.63;;;2.90;99.90;;;;;;5069037;28;20082;-70
2022/12/19 04:50:15;;;;;;;69.85;36.58;;;3.00;99.90;;;;;;5069517;28;20044;-70
2022/12/19 04:52:41;;;;;;;82.45;34.40;;;3.20;99.90;;;;;;5069653;28;20056;-69
2022/12/19 04:55:07;;;;;;;80.20;35.58;;;3.10;99.90;;;;;;5058435;28;20049;-70
2022/12/19 04:57:33;;;;;;;79.45;36.72;;;3.10;99.90;;;;;;5069632;28;20603;-69
2022/12/19 04:59:58;;;;;;;78.72;35.13;;;3.20;99.90;;;;;;5055543;28;20045;-69
2022/12/19 05:02:24;;;;;;;81.68;38.38;;;3.10;99.90;;;;;;5061826;28;20041;-69
2022/12/19 05:04:50;;;;;;;85.22;36.35;;;3.10;99.90;;;;;;5087133;28;20040;-69
2022/12/19 05:07:16;;;;;;;74.07;34.03;;;3.30;99.90;;;;;;5067515;28;20120;-69
2022/12/19 05:09:42;;;;;;;74.22;34.80;;;3.20;99.90;;;;;;5087428;28;20036;-69
2022/12/19 05:12:09;;;;;;;74.82;34.72;;;3.40;99.90;;;;;;5059583;28;20048;-69
2022/12/19 05:14:34;;;;;;;74.68;34.03;;;3.40;99.90;;;;;;5055364;28;20057;-70
2022/12/19 05:17:00;;;;;;;73.60;35.85;;;3.40;99.90;;;;;;5059276;28;20068;-70
2022/12/19 05:19:26;;;;;;;76.15;35.08;;;3.30;99.90;;;;;;5066848;28;20161;-69
2022/12/19 05:21:51;;;;;;;66.68;30.80;;;3.50;99.90;;;;;;5069241;28;20082;-70
2022/12/19 05:24:17;;;;;;;66.95;30.40;;;3.50;99.90;;;;;;5068390;28;20046;-70
2022/12/19 05:26:43;;;;;;;81.50;36.05;;;3.60;99.90;;;;;;5068952;28;20061;-70
2022/12/19 05:29:09;;;;;;;73.45;33.67;;;3.60;99.90;;;;;;5086645;28;20106;-70
2022/12/19 05:31:34;;;;;;;77.43;35.50;;;3.50;99.90;;;;;;5077096;28;20512;-70
2022/12/19 05:34:00;;;;;;;82.78;35.33;;;3.50;99.90;;;;;;5067985;28;20108;-69
2022/12/19 05:36:26;;;;;;;69.88;36.28;;;3.50;99.90;;;;;;5078005;28;20037;-70
2022/12/19 05:38:52;;;;;;;73.78;34.92;;;3.70;99.90;;;;;;5065525;28;20467;-69
2022/12/19 05:41:19;;;;;;;65.68;32.13;;;3.70;99.90;;;;;;5068384;28;20048;-70
2022/12/19 05:43:49;;;;;;;74.68;35.67;;;3.80;99.90;;;;;;5064748;28;20056;-69
2022/12/19 05:46:15;;;;;;;85.85;36.35;;;3.70;99.90;;;;;;5056685;28;20072;-70
2022/12/19 05:48:41;;;;;;;73.82;32.58;;;3.70;99.90;;;;;;5066340;28;20049;-70
2022/12/19 05:51:06;;;;;;;77.97;36.58;;;3.80;99.90;;;;;;5083717;28;20045;-70
2022/12/19 05:53:35;;;;;;;76.10;35.45;;;3.70;99.90;;;;;;5064122;28;20055;-70
2022/12/19 05:56:18;;;;;;;71.57;34.05;;;3.80;99.90;;;;;;5065698;28;20040;-70
2022/12/19 05:58:45;;;;;;;68.30;33.47;;;3.80;99.90;;;;;;5065281;28;20504;-69
2022/12/19 06:01:17;;;;;;;74.60;31.10;;;4.00;99.90;;;;;;5043137;28;20045;-70
2022/12/19 06:03:43;;;;;;;75.60;33.85;;;3.90;99.90;;;;;;5062908;28;20045;-70
2022/12/19 06:06:12;;;;;;;65.38;31.25;;;4.00;99.90;;;;;;5057028;28;20060;-69
2022/12/19 06:08:38;;;;;;;68.97;32.17;;;3.90;99.90;;;;;;5067720;28;20040;-70
2022/12/19 06:11:05;;;;;;;61.22;30.75;;;3.80;99.90;;;;;;5067904;28;20052;-69
2022/12/19 06:13:31;;;;;;;65.47;32.78;;;4.00;99.90;;;;;;5075577;28;20052;-69
2022/12/19 06:16:03;;;;;;;70.18;30.70;;;4.00;99.90;;;;;;5068425;28;20041;-70
2022/12/19 06:18:30;;;;;;;67.00;31.65;;;4.20;99.90;;;;;;5061249;28;20052;-69
2022/12/19 06:21:04;;;;;;;63.85;33.22;;;4.10;99.90;;;;;;5066351;28;20397;-69
2022/12/19 06:23:32;;;;;;;63.60;29.67;;;4.20;99.90;;;;;;5063859;28;20094;-69
2022/12/19 06:25:59;;;;;;;62.90;32.05;;;4.20;99.90;;;;;;5066821;28;20096;-69
2022/12/19 06:28:26;;;;;;;64.20;31.13;;;4.20;99.90;;;;;;5081149;28;20066;-69
2022/12/19 06:30:54;;;;;;;57.63;31.05;;;4.30;99.90;;;;;;5058531;28;20052;-70
2022/12/19 06:33:19;;;;;;;57.00;31.17;;;4.40;99.90;;;;;;5066675;28;20049;-70
2022/12/19 06:35:45;;;;;;;68.88;31.20;;;4.40;99.90;;;;;;5063804;28;20047;-69
2022/12/19 06:38:11;;;;;;;63.42;29.42;;;4.50;99.90;;;;;;5082106;28;20253;-70
2022/12/19 06:43:28;;;;;;;57.03;32.20;;;4.40;99.90;;;;;;5063160;28;20133;-69
2022/12/19 06:45:56;;;;;;;64.43;30.23;;;4.60;99.90;;;;;;5063353;28;20044;-70
2022/12/19 06:48:22;;;;;;;55.30;29.73;;;4.60;99.90;;;;;;5080787;28;20048;-70
2022/12/19 06:50:48;;;;;;;60.33;29.85;;;4.50;99.90;;;;;;5064045;28;20100;-70
2022/12/19 06:53:14;;;;;;;52.28;28.98;;;4.50;99.90;;;;;;5063523;28;20102;-70
2022/12/19 06:55:39;;;;;;;55.03;28.85;;;4.50;99.90;;;;;;5065093;28;20070;-70
2022/12/19 06:58:05;;;;;;;54.60;26.95;;;4.40;99.90;;;;;;5064845;28;20370;-69
2022/12/19 07:00:35;;;;;;;49.58;26.42;;;4.50;99.90;;;;;;5062549;28;20048;-69
2022/12/19 07:03:03;;;;;;;;;;;4.50;99.90;;;;;;5064460;28;20044;-70
2022/12/19 07:05:29;;;;;;;49.05;26.63;;;4.60;99.90;;;;;;5080504;28;20296;-70
2022/12/19 07:07:54;;;;;;;52.92;24.58;;;4.50;99.90;;;;;;5017640;28;20190;-68
2022/12/19 07:10:20;;;;;;;50.53;26.13;;;4.70;99.90;;;;;;5011224;28;20148;-67
2022/12/19 07:12:46;;;;;;;47.08;26.25;;;4.60;99.90;;;;;;5047636;28;20065;-69
2022/12/19 07:15:11;;;;;;;46.97;25.08;;;4.60;99.90;;;;;;5056630;28;20041;-67
2022/12/19 07:17:38;;;;;;;50.75;27.08;;;4.70;99.90;;;;;;5067403;28;20049;-67
2022/12/19 07:20:04;;;;;;;43.17;24.65;;;4.50;99.90;;;;;;5037187;28;20060;-67
2022/12/19 07:22:32;;;;;;;52.05;24.98;;;4.70;99.90;;;;;;5054997;28;20059;-67
2022/12/19 07:25:00;;;;;;;47.83;26.35;;;4.80;99.90;;;;;;5041570;28;20056;-67
2022/12/19 07:27:27;;;;;;;45.33;23.60;;;4.80;99.90;;;;;;5063821;28;20126;-68
2022/12/19 07:29:53;;;;;;;50.47;26.63;;;4.70;99.90;;;;;;5036817;28;20045;-67
2022/12/19 07:32:20;;;;;;;53.88;27.65;;;4.80;99.90;;;;;;5039837;28;20639;-67
2022/12/19 07:34:45;;;;;;;53.58;26.38;;;4.90;99.90;;;;;;5034522;28;20041;-67
2022/12/19 07:37:11;;;;;;;44.22;24.83;;;4.80;99.90;;;;;;5041486;28;20071;-67
2022/12/19 07:39:37;;;;;;;44.08;24.65;;;4.90;99.90;;;;;;5037747;28;20094;-67
2022/12/19 07:42:03;;;;;;;45.70;23.90;;;4.90;99.90;;;;;;5066617;28;20048;-67
2022/12/19 07:44:28;;;;;;;46.78;24.63;;;5.00;99.90;;;;;;5053778;28;20522;-67
2022/12/19 07:46:54;;;;;;;46.10;24.63;;;5.00;99.90;;;;;;5054989;28;20052;-66
2022/12/19 07:49:20;;;;;;;45.38;23.70;;;5.00;99.90;;;;;;5038862;28;20052;-67
2022/12/19 07:51:46;;;;;;;45.47;24.58;;;5.00;99.90;;;;;;5045737;28;20041;-66
2022/12/19 07:54:11;;;;;;;39.65;23.35;;;5.00;99.90;;;;;;5049679;28;20250;-67
2022/12/19 07:56:37;;;;;;;48.60;26.35;;;4.90;99.90;;;;;;5055714;28;20185;-67
2022/12/19 07:59:02;;;;;;;45.40;22.13;;;5.00;99.90;;;;;;5057226;28;20056;-66
2022/12/19 08:01:28;;;;;;;51.03;24.42;;;5.00;99.90;;;;;;5041719;28;20079;-67
2022/12/19 08:03:54;;;;;;;43.60;22.67;;;5.00;99.90;;;;;;5045441;28;20041;-66
2022/12/19 08:06:20;;;;;;;45.08;23.00;;;5.10;99.90;;;;;;5058687;28;20153;-66
2022/12/19 08:08:46;;;;;;;52.42;24.17;;;5.20;99.90;;;;;;5048679;28;20052;-67
2022/12/19 08:11:17;;;;;;;44.53;24.75;;;5.00;99.90;;;;;;5051126;28;20155;-64
2022/12/19 08:13:44;;;;;;;38.75;22.75;;;5.10;99.90;;;;;;5054805;28;20094;-64
2022/12/19 08:16:10;;;;;;;47.97;23.60;;;5.00;99.90;;;;;;5033095;28;20057;-66
2022/12/19 08:18:36;;;;;;;45.53;22.77;;;5.10;99.90;;;;;;5040928;28;20041;-68
2022/12/19 08:21:02;;;;;;;45.13;22.25;;;5.20;99.90;;;;;;5039969;28;20060;-66
2022/12/19 08:23:28;;;;;;;42.05;22.33;;;5.00;99.90;;;;;;5048770;28;20108;-67
2022/12/19 08:26:05;;;;;;;40.55;22.63;;;5.10;99.90;;;;;;5071946;28;20127;-67
2022/12/19 08:28:32;;;;;;;44.47;22.48;;;5.20;99.90;;;;;;5053206;28;20045;-67
2022/12/19 08:31:13;;;;;;;45.22;22.67;;;5.10;99.90;;;;;;5032986;28;20080;-66
2022/12/19 08:33:39;;;;;;;40.58;20.83;;;5.20;99.90;;;;;;5056932;28;20135;-68
2022/12/19 08:36:08;;;;;;;38.55;20.08;;;5.30;99.90;;;;;;5048242;28;20052;-68
2022/12/19 08:38:35;;;;;;;41.78;21.98;;;5.50;99.90;;;;;;5077547;28;20075;-68
2022/12/19 08:41:02;;;;;;;41.08;21.95;;;5.30;99.90;;;;;;5037679;28;20165;-67
2022/12/19 08:43:27;;;;;;;41.90;20.92;;;5.50;99.90;;;;;;5054869;28;20068;-68
2022/12/19 08:45:53;;;;;;;39.33;21.25;;;5.40;99.90;;;;;;5045861;28;20074;-67
2022/12/19 08:48:19;;;;;;;42.10;21.35;;;5.50;99.90;;;;;;5055704;28;20044;-67
2022/12/19 08:50:49;;;;;;;49.65;20.40;;;5.40;99.90;;;;;;5047753;28;20079;-67
2022/12/19 08:53:14;;;;;;;38.27;22.07;;;5.50;99.90;;;;;;5058860;28;20036;-67
2022/12/19 08:55:40;;;;;;;43.83;21.90;;;5.50;99.90;;;;;;5035764;28;20103;-67
2022/12/19 08:58:06;;;;;;;40.35;22.88;;;5.60;99.90;;;;;;5053958;28;20041;-67
2022/12/19 09:00:31;;;;;;;43.22;23.20;;;5.50;99.90;;;;;;5034937;28;20058;-67
2022/12/19 09:02:57;;;;;;;42.95;21.80;;;5.60;99.90;;;;;;5063645;28;20108;-67
2022/12/19 09:05:23;;;;;;;36.25;22.58;;;5.60;99.90;;;;;;5047592;28;20049;-66
2022/12/19 09:07:48;;;;;;;43.45;22.58;;;5.50;99.90;;;;;;5052292;28;20060;-69
2022/12/19 09:10:14;;;;;;;35.88;21.23;;;5.50;99.90;;;;;;5065415;28;20371;-70
2022/12/19 09:12:40;;;;;;;40.08;22.58;;;5.60;99.90;;;;;;5058574;28;20044;-67
2022/12/19 09:15:06;;;;;;;38.47;22.55;;;5.70;99.90;;;;;;5048678;28;20106;-66
2022/12/19 09:17:31;;;;;;;49.10;25.00;;;5.80;99.90;;;;;;5059703;28;20083;-66
2022/12/19 09:19:57;;;;;;;40.95;25.48;;;5.80;99.90;;;;;;5041234;28;20049;-66
2022/12/19 09:22:22;;;;;;;44.92;24.15;;;6.00;99.90;;;;;;5072383;28;20044;-66
2022/12/19 09:24:48;;;;;;;44.42;26.00;;;6.10;99.90;;;;;;5051973;28;20359;-66
2022/12/19 09:27:14;;;;;;;45.80;26.00;;;6.10;99.90;;;;;;5059674;28;20032;-66
2022/12/19 09:29:40;;;;;;;46.15;26.08;;;6.00;99.90;;;;;;5049949;28;20465;-66
2022/12/19 09:32:06;;;;;;;39.58;22.80;;;5.90;99.90;;;;;;5053353;28;20132;-66
2022/12/19 09:34:31;;;;;;;46.67;25.70;;;6.10;99.90;;;;;;5062993;28;20028;-66
2022/12/19 09:36:57;;;;;;;49.03;26.75;;;6.20;99.90;;;;;;5044525;28;20059;-66
2022/12/19 09:39:23;;;;;;;49.72;26.23;;;6.20;99.90;;;;;;5075949;28;20053;-66
2022/12/19 09:42:11;;;;;;;45.22;26.27;;;6.10;99.90;;;;;;5035070;28;20131;-66
2022/12/19 09:44:51;;;;;;;44.28;25.65;;;6.20;99.90;;;;;;5049131;28;20044;-65
2022/12/19 09:47:28;;;;;;;48.92;26.88;;;6.30;99.90;;;;;;5060240;28;20060;-65
2022/12/19 09:49:54;;;;;;;50.13;28.02;;;6.30;99.90;;;;;;5039354;28;20045;-69
2022/12/19 09:52:34;;;;;;;48.55;28.33;;;6.20;99.90;;;;;;5034340;28;20041;-70
2022/12/19 09:55:05;;;;;;;43.78;26.30;;;6.20;99.90;;;;;;5046023;28;20087;-67
2022/12/19 09:57:50;;;;;;;;;;;6.40;99.90;;;;;;5049580;28;20047;-67
2022/12/19 10:00:19;;;;;;;48.45;25.60;;;6.40;99.90;;;;;;5047218;28;19924;-67
2022/12/19 10:02:58;;;;;;;46.28;26.75;;;6.40;99.90;;;;;;5061157;28;20052;-67
2022/12/19 10:05:32;;;;;;;49.58;27.10;;;6.40;99.90;;;;;;5046285;28;20052;-67
2022/12/19 10:07:58;;;;;;;40.55;24.35;;;6.60;99.90;;;;;;5032908;28;20056;-67
2022/12/19 10:10:54;;;;;;;41.58;25.00;;;6.50;99.90;;;;;;5045729;28;20151;-66
2022/12/19 10:13:54;;;;;;;44.42;24.50;;;6.50;99.90;;;;;;5051789;28;20125;-72
2022/12/19 10:16:28;;;;;;;39.05;24.67;;;6.70;99.90;;;;;;5039232;28;20143;-71
2022/12/19 10:18:57;;;;;;;40.42;24.55;;;6.70;99.90;;;;;;5046208;28;20582;-71
2022/12/19 10:21:32;;;;;;;40.47;23.63;;;6.70;99.90;;;;;;5021591;28;20065;-70
2022/12/19 10:24:01;;;;;;;37.13;23.77;;;6.80;99.90;;;;;;5055141;28;20056;-69
2022/12/19 10:26:51;;;;;;;37.83;21.63;;;6.70;99.90;;;;;;5066503;28;20079;-70
2022/12/19 10:29:35;;;;;;;40.97;22.90;;;6.70;99.90;;;;;;5044586;28;20063;-70
2022/12/19 10:32:25;;;;;;;32.08;20.70;;;6.80;99.90;;;;;;5033323;28;20048;-70
2022/12/19 10:34:52;;;;;;;38.33;24.67;;;6.80;99.90;;;;;;5044667;28;20052;-71
2022/12/19 10:37:27;;;;;;;37.65;23.35;;;7.00;99.90;;;;;;5067845;28;20079;-70
2022/12/19 10:40:20;;;;;;;36.25;22.05;;;7.00;99.90;;;;;;5061722;28;20060;-71
2022/12/19 10:42:58;;;;;;;31.65;20.85;;;6.90;99.90;;;;;;5043652;28;20085;-71
2022/12/19 10:45:31;;;;;;;33.92;21.35;;;6.90;99.90;;;;;;5041242;28;20052;-70
2022/12/19 10:47:57;;;;;;;27.52;19.23;;;7.10;99.90;;;;;;5051110;28;20084;-71
2022/12/19 10:50:26;;;;;;;32.85;21.23;;;7.10;99.90;;;;;;5048406;28;20571;-69
2022/12/19 10:53:06;;;;;;;31.53;20.37;;;7.10;99.90;;;;;;5053878;28;20047;-70
2022/12/19 10:55:48;;;;;;;28.07;20.20;;;7.20;99.90;;;;;;5040149;28;20049;-69
2022/12/19 10:58:26;;;;;;;27.75;19.92;;;7.00;99.90;;;;;;5045031;28;20117;-69
2022/12/19 11:01:19;;;;;;;28.88;19.55;;;7.10;99.90;;;;;;5035827;28;20049;-70
2022/12/19 11:03:50;;;;;;;27.23;19.35;;;7.10;99.90;;;;;;5044737;28;20131;-69
2022/12/19 11:06:34;;;;;;;27.50;18.80;;;7.00;99.90;;;;;;5042911;28;20542;-69
2022/12/19 11:09:21;;;;;;;29.13;19.05;;;7.20;99.90;;;;;;5025304;28;20576;-71
2022/12/19 11:11:54;;;;;;;31.10;21.45;;;7.10;99.90;;;;;;5045105;28;20067;-69
2022/12/19 11:14:26;;;;;;;32.28;20.40;;;7.20;99.90;;;;;;5045278;28;20143;-69
2022/12/19 11:16:52;;;;;;;29.42;19.85;;;7.10;99.90;;;;;;5044452;28;20051;-69
2022/12/19 11:19:25;;;;;;;29.80;18.27;;;7.20;99.90;;;;;;5068663;28;20119;-71
2022/12/19 11:21:51;;;;;;;29.10;19.30;;;7.30;99.90;;;;;;5048168;28;20079;-69
2022/12/19 11:24:29;;;;;;;32.60;20.58;;;7.20;99.90;;;;;;5053203;28;20116;-68
2022/12/19 11:26:55;;;;;;;30.23;19.48;;;7.20;99.90;;;;;;5015367;28;20052;-68
2022/12/19 11:29:42;;;;;;;30.45;19.75;;;7.40;99.90;;;;;;5050304;28;20063;-69
2022/12/19 11:32:31;;;;;;;30.23;19.20;;;7.40;99.90;;;;;;5047543;28;20123;-70
2022/12/19 11:35:13;;;;;;;26.57;18.87;;;7.40;99.90;;;;;;5044495;28;20049;-67
2022/12/19 11:37:49;;;;;;;31.83;20.13;;;7.30;99.90;;;;;;5039456;28;20291;-67
2022/12/19 11:40:32;;;;;;;23.75;17.90;;;7.30;99.90;;;;;;5035627;28;20048;-67
2022/12/19 11:43:13;;;;;;;31.27;18.77;;;7.20;99.90;;;;;;5061442;28;20241;-71
2022/12/19 11:46:01;;;;;;;29.98;19.48;;;7.30;99.90;;;;;;5046205;28;20123;-67
2022/12/19 11:48:42;;;;;;;24.70;17.13;;;7.20;99.90;;;;;;5053925;28;20059;-65
2022/12/19 11:51:38;;;;;;;27.73;17.23;;;7.40;99.90;;;;;;5033291;28;20398;-66
2022/12/19 11:54:16;;;;;;;29.90;19.10;;;7.30;99.90;;;;;;5062063;28;20051;-69
2022/12/19 11:56:42;;;;;;;28.63;18.45;;;7.20;99.90;;;;;;5036427;28;20059;-66
2022/12/19 11:59:44;;;;;;;24.20;17.95;;;7.20;99.90;;;;;;5031777;28;20041;-66
2022/12/19 12:02:48;;;;;;;27.58;18.45;;;7.20;99.90;;;;;;5038098;28;20068;-66
2022/12/19 12:05:37;;;;;;;27.95;17.98;;;7.30;99.90;;;;;;5036110;28;20108;-65
2022/12/19 12:08:54;;;;;;;29.83;18.88;;;7.30;99.90;;;;;;5034544;28;20745;-66
2022/12/19 12:11:35;;;;;;;27.75;17.88;;;7.40;99.90;;;;;;4959667;28;20102;-65
2022/12/19 12:14:12;;;;;;;26.92;18.45;;;7.40;99.90;;;;;;4980637;28;20062;-66
2022/12/19 12:16:52;;;;;;;27.25;19.10;;;7.40;99.90;;;;;;4961339;28;20358;-68
2022/12/19 12:19:39;;;;;;;29.15;19.25;;;7.30;99.90;;;;;;4982773;28;20399;-68
2022/12/19 12:22:45;;;;;;;25.88;17.42;;;7.40;99.90;;;;;;4976214;28;20760;-68
2022/12/19 12:25:29;;;;;;;27.13;18.17;;;7.50;99.90;;;;;;4974568;28;20043;-68
2022/12/19 12:28:28;;;;;;;25.15;18.73;;;7.50;99.90;;;;;;4979627;28;20062;-69
2022/12/19 12:31:09;;;;;;;28.77;18.27;;;7.40;99.90;;;;;;4965259;28;20150;-68
2022/12/19 12:33:56;;;;;;;25.98;17.77;;;7.50;99.90;;;;;;4959208;28;20078;-68
2022/12/19 12:36:50;;;;;;;26.42;18.20;;;7.40;99.90;;;;;;4965860;28;20480;-68
2022/12/19 12:39:43;;;;;;;29.80;18.67;;;7.50;99.90;;;;;;4956201;28;20387;-69
2022/12/19 12:42:21;;;;;;;23.63;17.15;;;7.40;99.90;;;;;;5007075;28;20068;-68
2022/12/19 12:44:49;;;;;;;22.73;16.63;;;7.60;99.90;;;;;;5048231;28;20048;-68
2022/12/19 12:47:28;;;;;;;24.33;18.42;;;7.70;99.90;;;;;;5036429;28;20076;-68
2022/12/19 12:50:03;;;;;;;24.35;16.50;;;7.90;99.90;;;;;;5048068;28;20060;-68
2022/12/19 12:52:40;;;;;;;21.63;16.77;;;7.80;99.90;;;;;;5051454;28;20071;-68
2022/12/19 12:55:27;;;;;;;24.00;17.50;;;7.80;99.90;;;;;;5045582;28;20045;-72
2022/12/19 12:57:53;;;;;;;19.83;16.10;;;7.70;99.90;;;;;;5041656;28;20056;-68
2022/12/19 13:00:29;;;;;;;23.38;16.98;;;7.90;99.90;;;;;;5027350;28;20053;-68
2022/12/19 13:03:17;;;;;;;20.67;16.00;;;7.90;99.90;;;;;;5036155;28;20194;-68
2022/12/19 13:05:42;;;;;;;21.25;15.77;;;7.90;99.90;;;;;;5022588;28;20113;-68